Time;durP1;ratioP1;P1;durP2;ratioP2;P2;SDS_P1;SDS_P2;PMS_P1;PMS_P2;Temp;Humidity;BMP_temperature;BMP_pressure;BME280_temperature;BME280_humidity;BME280_pressure;Samples;Min_cycle;Max_cycle;Signal;HPM_P1;HPM_P2
2020/12/11 00:00:59;;;;;;;19.60;12.93;;;5.50;63.10;;;;;;2074598;28;20737;-74
2020/12/11 00:02:00;;;;;;;17.40;12.88;;;5.50;63.10;;;;;;2075088;28;20028;-77
2020/12/11 00:03:00;;;;;;;17.52;13.05;;;5.50;63.10;;;;;;2083754;28;20025;-77
2020/12/11 00:04:01;;;;;;;16.92;12.52;;;5.50;63.10;;;;;;2084043;28;20092;-75
2020/12/11 00:05:03;;;;;;;17.58;13.30;;;5.50;63.10;;;;;;2083308;28;20104;-76
2020/12/11 00:06:04;;;;;;;18.25;13.68;;;5.50;63.10;;;;;;2083105;28;20471;-77
2020/12/11 00:07:04;;;;;;;17.05;13.02;;;5.50;63.20;;;;;;2066881;28;20022;-76
2020/12/11 00:08:09;;;;;;;18.95;14.18;;;5.50;63.20;;;;;;2065547;28;20018;-76
2020/12/11 00:09:09;;;;;;;19.25;12.57;;;5.50;63.20;;;;;;2083229;28;20500;-77
2020/12/11 00:10:12;;;;;;;16.02;12.48;;;5.50;63.20;;;;;;2074991;28;20891;-76
2020/12/11 00:11:12;;;;;;;17.40;12.25;;;5.50;63.20;;;;;;2074724;28;20037;-76
2020/12/11 00:12:13;;;;;;;15.88;12.43;;;5.50;63.20;;;;;;2083374;28;20108;-76
2020/12/11 00:13:13;;;;;;;16.92;12.48;;;5.50;63.10;;;;;;2083356;28;20029;-74
2020/12/11 00:14:14;;;;;;;20.08;13.15;;;5.50;63.10;;;;;;2074634;28;20278;-75
2020/12/11 00:15:15;;;;;;;18.40;12.98;;;5.50;63.10;;;;;;2074724;28;20365;-74
2020/12/11 00:16:16;;;;;;;16.92;12.25;;;5.50;63.10;;;;;;2083609;28;20060;-76
2020/12/11 00:17:16;;;;;;;16.67;12.45;;;5.50;63.10;;;;;;2084850;28;20028;-74
2020/12/11 00:18:17;;;;;;;18.83;13.15;;;5.50;63.10;;;;;;2075509;28;20028;-76
2020/12/11 00:19:17;;;;;;;16.30;12.35;;;5.50;63.10;;;;;;2075099;28;20026;-76
2020/12/11 00:20:18;;;;;;;16.83;12.45;;;5.50;63.10;;;;;;2083674;28;20127;-76
2020/12/11 00:21:19;;;;;;;15.38;12.05;;;5.50;63.10;;;;;;2076054;28;20032;-75
2020/12/11 00:22:20;;;;;;;16.20;12.40;;;5.50;63.10;;;;;;2070075;28;20464;-75
2020/12/11 00:23:23;;;;;;;17.35;12.57;;;5.50;63.10;;;;;;2070577;28;20021;-75
2020/12/11 00:24:24;;;;;;;16.50;12.65;;;5.50;63.10;;;;;;2075996;28;20405;-75
2020/12/11 00:25:24;;;;;;;17.25;12.75;;;5.50;63.10;;;;;;2075168;28;20243;-76
2020/12/11 00:26:25;;;;;;;19.10;13.10;;;5.50;63.10;;;;;;2074365;28;20234;-74
2020/12/11 00:27:25;;;;;;;16.08;11.65;;;5.60;63.10;;;;;;2074084;28;20436;-75
2020/12/11 00:28:28;;;;;;;17.50;12.75;;;5.50;63.00;;;;;;2084169;28;20021;-75
2020/12/11 00:29:28;;;;;;;18.77;13.05;;;5.60;63.10;;;;;;2083492;28;20035;-74
2020/12/11 00:30:29;;;;;;;17.55;12.00;;;5.60;63.10;;;;;;2083154;28;20049;-76
2020/12/11 00:31:29;;;;;;;16.70;12.10;;;5.60;63.10;;;;;;2074791;28;20139;-77
2020/12/11 00:32:31;;;;;;;17.38;13.15;;;5.60;63.10;;;;;;2075329;28;20461;-76
2020/12/11 00:33:31;;;;;;;15.13;11.93;;;5.60;63.10;;;;;;2084265;28;20363;-77
2020/12/11 00:34:33;;;;;;;18.27;13.07;;;5.60;63.00;;;;;;2073379;28;20033;-77
2020/12/11 00:35:34;;;;;;;17.70;13.20;;;5.60;63.00;;;;;;2072508;28;20075;-76
2020/12/11 00:36:34;;;;;;;15.75;12.02;;;5.60;63.00;;;;;;2082862;28;20095;-76
2020/12/11 00:37:35;;;;;;;15.63;11.93;;;5.60;63.00;;;;;;2084127;28;20044;-76
2020/12/11 00:38:36;;;;;;;16.75;12.68;;;5.60;63.10;;;;;;2073147;28;20026;-77
2020/12/11 00:39:37;;;;;;;15.48;11.60;;;5.60;63.00;;;;;;2073596;28;20072;-77
2020/12/11 00:40:37;;;;;;;13.57;11.68;;;5.60;63.10;;;;;;2075525;28;20033;-77
2020/12/11 00:41:39;;;;;;;16.90;12.15;;;5.60;62.90;;;;;;2075987;28;20495;-76
2020/12/11 00:42:40;;;;;;;16.98;12.23;;;5.60;62.90;;;;;;2084935;28;20608;-76
2020/12/11 00:43:40;;;;;;;17.98;12.77;;;5.60;62.90;;;;;;2076374;28;20028;-76
2020/12/11 00:44:41;;;;;;;14.05;11.75;;;5.60;62.90;;;;;;2077195;28;20032;-76
2020/12/11 00:45:42;;;;;;;15.02;11.48;;;5.60;62.90;;;;;;2077012;28;20030;-76
2020/12/11 00:46:42;;;;;;;17.02;12.52;;;5.60;63.00;;;;;;2076310;28;20128;-76
2020/12/11 00:47:43;;;;;;;16.98;11.73;;;5.60;63.00;;;;;;2069646;28;20022;-74
2020/12/11 00:48:43;;;;;;;16.63;12.68;;;5.60;63.00;;;;;;2069016;28;20033;-74
2020/12/11 00:49:44;;;;;;;14.65;11.45;;;5.70;63.00;;;;;;2085004;28;20017;-75
2020/12/11 00:50:44;;;;;;;16.90;11.88;;;5.60;62.90;;;;;;2085950;28;20013;-76
2020/12/11 00:51:45;;;;;;;16.42;12.50;;;5.70;62.90;;;;;;2071943;28;20515;-75
2020/12/11 00:52:46;;;;;;;15.43;11.10;;;5.70;62.90;;;;;;2071238;28;20476;-74
2020/12/11 00:53:47;;;;;;;15.85;11.85;;;5.70;62.80;;;;;;2086210;28;20475;-77
2020/12/11 00:54:47;;;;;;;16.05;12.27;;;5.70;62.90;;;;;;2087192;28;20124;-75
2020/12/11 00:55:48;;;;;;;14.77;11.80;;;5.70;62.90;;;;;;2076886;28;20036;-75
2020/12/11 00:56:49;;;;;;;15.73;11.60;;;5.70;62.80;;;;;;2077867;28;20083;-75
2020/12/11 00:57:49;;;;;;;14.27;11.43;;;5.70;62.80;;;;;;2086677;28;20346;-75
2020/12/11 00:58:50;;;;;;;13.65;11.48;;;5.70;62.80;;;;;;2087001;28;20053;-77
2020/12/11 00:59:51;;;;;;;13.45;10.68;;;5.70;62.80;;;;;;2085843;28;20520;-75
2020/12/11 01:00:51;;;;;;;15.75;11.93;;;5.70;62.80;;;;;;2084200;28;20132;-74
2020/12/11 01:01:52;;;;;;;14.23;10.98;;;5.70;62.90;;;;;;2085165;28;20044;-74
2020/12/11 01:02:52;;;;;;;14.43;11.60;;;5.70;62.80;;;;;;2085309;28;20029;-75
2020/12/11 01:03:53;;;;;;;14.82;11.80;;;5.70;62.80;;;;;;2079913;28;20331;-75
2020/12/11 01:04:54;;;;;;;17.77;11.40;;;5.70;62.80;;;;;;2080184;28;20038;-75
2020/12/11 01:05:54;;;;;;;13.50;11.13;;;5.70;62.70;;;;;;2086186;28;20028;-75
2020/12/11 01:06:55;;;;;;;16.33;11.15;;;5.70;62.70;;;;;;2084681;28;20045;-75
2020/12/11 01:07:55;;;;;;;13.82;11.32;;;5.70;62.70;;;;;;2076587;28;20025;-75
2020/12/11 01:08:56;;;;;;;15.27;11.35;;;5.70;62.70;;;;;;2068329;28;20022;-76
2020/12/11 01:09:56;;;;;;;14.20;11.35;;;5.70;62.60;;;;;;2072309;28;20108;-75
2020/12/11 01:10:57;;;;;;;14.40;10.93;;;5.70;62.70;;;;;;2071258;28;20014;-75
2020/12/11 01:11:58;;;;;;;13.93;10.45;;;5.70;62.70;;;;;;2076529;28;20025;-75
2020/12/11 01:12:58;;;;;;;15.52;11.57;;;5.70;62.60;;;;;;2086056;28;20021;-77
2020/12/11 01:13:59;;;;;;;13.40;11.13;;;5.70;62.50;;;;;;2085420;28;20029;-74
2020/12/11 01:14:59;;;;;;;13.80;11.30;;;5.70;62.50;;;;;;2084962;28;20028;-75
2020/12/11 01:16:00;;;;;;;13.77;11.07;;;5.70;62.50;;;;;;2084885;28;20029;-75
2020/12/11 01:17:01;;;;;;;13.85;11.05;;;5.70;62.40;;;;;;2076607;28;20022;-75
2020/12/11 01:18:01;;;;;;;16.20;12.25;;;5.70;62.40;;;;;;2076160;28;20368;-76
2020/12/11 01:19:02;;;;;;;14.80;11.73;;;5.70;62.30;;;;;;2084475;28;20028;-76
2020/12/11 01:20:04;;;;;;;13.57;11.50;;;5.80;62.50;;;;;;2085785;28;20028;-76
2020/12/11 01:21:05;;;;;;;15.52;11.77;;;5.80;62.40;;;;;;2076567;28;20025;-76
2020/12/11 01:22:05;;;;;;;14.48;11.35;;;5.70;62.30;;;;;;2076758;28;20425;-75
2020/12/11 01:23:06;;;;;;;16.52;11.32;;;5.70;62.30;;;;;;2075566;28;20017;-74
2020/12/11 01:24:07;;;;;;;15.98;11.95;;;5.70;62.40;;;;;;2076227;28;20057;-74
2020/12/11 01:25:08;;;;;;;15.43;11.05;;;5.70;62.30;;;;;;2085325;28;20503;-74
2020/12/11 01:26:09;;;;;;;14.43;11.13;;;5.80;62.40;;;;;;2076072;28;20135;-74
2020/12/11 01:27:11;;;;;;;15.45;11.30;;;5.70;62.30;;;;;;2077066;28;20548;-75
2020/12/11 01:28:12;;;;;;;14.43;11.38;;;5.80;62.40;;;;;;2077162;28;20018;-74
2020/12/11 01:29:12;;;;;;;14.20;10.82;;;5.80;62.40;;;;;;2075944;28;20018;-75
2020/12/11 01:30:13;;;;;;;16.35;11.70;;;5.80;62.40;;;;;;2085478;28;20049;-77
2020/12/11 01:31:18;;;;;;;14.38;11.68;;;5.80;62.40;;;;;;2067113;28;20030;-75
2020/12/11 01:32:19;;;;;;;14.88;11.40;;;5.80;62.50;;;;;;2069634;28;20040;-75
2020/12/11 01:33:19;;;;;;;14.73;11.38;;;5.80;62.40;;;;;;2085118;28;20036;-76
2020/12/11 01:34:20;;;;;;;14.00;10.70;;;5.70;62.30;;;;;;2085441;28;20032;-77
2020/12/11 01:35:20;;;;;;;13.65;10.38;;;5.80;62.30;;;;;;2083987;28;20021;-76
2020/12/11 01:36:25;;;;;;;13.63;10.52;;;5.80;62.40;;;;;;2086314;28;20039;-75
2020/12/11 01:37:26;;;;;;;13.90;10.70;;;5.80;62.40;;;;;;2085173;28;20152;-76
2020/12/11 01:38:27;;;;;;;13.45;10.95;;;5.80;62.40;;;;;;2084287;28;20024;-75
2020/12/11 01:39:27;;;;;;;13.88;11.38;;;5.70;62.30;;;;;;2078901;28;20040;-76
2020/12/11 01:40:37;;;;;;;14.60;10.85;;;5.80;62.30;;;;;;2071166;28;20112;-76
2020/12/11 01:41:37;;;;;;;15.18;11.20;;;5.70;62.20;;;;;;2071472;28;20092;-76
2020/12/11 01:42:38;;;;;;;13.35;10.52;;;5.80;62.20;;;;;;2078349;28;20471;-77
2020/12/11 01:43:38;;;;;;;16.20;11.88;;;5.80;62.20;;;;;;2084735;28;20057;-76
2020/12/11 01:44:49;;;;;;;15.80;11.07;;;5.80;62.20;;;;;;2084693;28;20028;-77
2020/12/11 01:45:50;;;;;;;15.40;11.40;;;5.80;62.20;;;;;;2084360;28;20364;-76
2020/12/11 01:46:50;;;;;;;15.70;11.15;;;5.80;62.20;;;;;;2084360;28;20107;-76
2020/12/11 01:47:51;;;;;;;14.27;11.02;;;5.70;62.10;;;;;;2084562;28;20356;-76
2020/12/11 01:48:52;;;;;;;13.63;10.60;;;5.70;62.20;;;;;;2084337;28;20044;-76
2020/12/11 01:49:54;;;;;;;14.25;10.85;;;5.70;62.20;;;;;;2084513;28;20060;-76
2020/12/11 01:50:54;;;;;;;16.58;11.30;;;5.70;62.20;;;;;;2084897;28;20026;-76
2020/12/11 01:51:55;;;;;;;15.65;10.77;;;5.80;62.30;;;;;;2076467;28;20027;-76
2020/12/11 01:52:56;;;;;;;16.20;11.85;;;5.70;62.20;;;;;;2076225;28;20057;-76
2020/12/11 01:53:58;;;;;;;14.82;11.48;;;5.70;62.20;;;;;;2084433;28;20035;-76
2020/12/11 01:54:58;;;;;;;14.77;11.25;;;5.70;62.30;;;;;;2084683;28;20021;-76
2020/12/11 01:56:01;;;;;;;13.93;11.20;;;5.70;62.20;;;;;;2085154;28;20496;-77
2020/12/11 01:57:06;;;;;;;13.63;10.70;;;5.70;62.20;;;;;;2079330;28;20025;-76
2020/12/11 01:58:13;;;;;;;12.65;10.70;;;5.70;62.20;;;;;;2080260;28;20037;-76
2020/12/11 01:59:21;;;;;;;14.32;11.35;;;5.70;62.20;;;;;;2084911;28;20538;-77
2020/12/11 02:00:22;;;;;;;15.00;11.20;;;5.70;62.20;;;;;;2085867;28;20112;-76
2020/12/11 02:01:23;;;;;;;14.32;10.75;;;5.70;62.20;;;;;;2084014;28;20104;-76
2020/12/11 02:02:26;;;;;;;13.70;11.15;;;5.70;62.20;;;;;;2084522;28;20099;-77
2020/12/11 02:03:27;;;;;;;14.93;11.25;;;5.70;62.20;;;;;;2083974;28;20026;-76
2020/12/11 02:04:28;;;;;;;14.80;10.98;;;5.70;62.20;;;;;;2074999;28;20392;-75
2020/12/11 02:05:29;;;;;;;14.48;11.38;;;5.70;62.20;;;;;;2075812;28;20033;-76
2020/12/11 02:06:30;;;;;;;13.38;10.75;;;5.70;62.20;;;;;;2076464;28;20565;-75
2020/12/11 02:07:30;;;;;;;13.40;10.55;;;5.70;62.20;;;;;;2076642;28;20297;-77
2020/12/11 02:08:31;;;;;;;14.25;11.15;;;5.70;62.20;;;;;;2084791;28;20032;-75
2020/12/11 02:09:33;;;;;;;15.40;11.05;;;5.70;62.20;;;;;;2084112;28;20041;-76
2020/12/11 02:10:34;;;;;;;15.43;11.80;;;5.70;62.20;;;;;;2084524;28;20146;-76
2020/12/11 02:11:34;;;;;;;14.13;11.48;;;5.70;62.20;;;;;;2085040;28;20333;-77
2020/12/11 02:12:36;;;;;;;16.02;11.55;;;5.70;62.20;;;;;;2075775;28;20074;-76
2020/12/11 02:13:41;;;;;;;13.13;11.13;;;5.70;62.20;;;;;;2060305;28;20346;-76
2020/12/11 02:14:42;;;;;;;14.10;11.13;;;5.70;62.10;;;;;;2071587;28;20033;-77
2020/12/11 02:15:42;;;;;;;14.07;10.48;;;5.70;62.10;;;;;;2075579;28;20450;-74
2020/12/11 02:16:43;;;;;;;13.20;10.95;;;5.60;62.10;;;;;;2084002;28;20041;-76
2020/12/11 02:17:44;;;;;;;14.50;11.45;;;5.60;62.10;;;;;;2084446;28;20371;-76
2020/12/11 02:18:44;;;;;;;15.30;11.25;;;5.60;62.10;;;;;;2084330;28;20033;-76
2020/12/11 02:19:45;;;;;;;14.13;11.07;;;5.60;62.10;;;;;;2075620;28;20033;-76
2020/12/11 02:20:46;;;;;;;13.02;10.93;;;5.60;62.10;;;;;;2067734;28;20112;-77
2020/12/11 02:21:46;;;;;;;13.30;10.20;;;5.60;62.20;;;;;;2077633;28;20025;-76
2020/12/11 02:22:47;;;;;;;14.77;11.25;;;5.60;62.10;;;;;;2084105;28;20032;-76
2020/12/11 02:23:48;;;;;;;13.23;11.48;;;5.60;62.00;;;;;;2076248;28;20018;-76
2020/12/11 02:24:50;;;;;;;12.38;10.65;;;5.60;62.10;;;;;;2076514;28;20286;-76
2020/12/11 02:25:50;;;;;;;12.95;10.88;;;5.60;62.10;;;;;;2075609;28;20060;-76
2020/12/11 02:26:57;;;;;;;15.07;11.07;;;5.60;62.00;;;;;;2075882;28;20572;-76
2020/12/11 02:27:58;;;;;;;15.82;11.63;;;5.50;62.00;;;;;;2084172;28;20029;-76
2020/12/11 02:28:59;;;;;;;13.90;10.75;;;5.60;62.00;;;;;;2084753;28;20018;-77
2020/12/11 02:29:59;;;;;;;13.05;10.85;;;5.50;62.00;;;;;;2084499;28;20032;-76
2020/12/11 02:31:00;;;;;;;13.98;10.32;;;5.50;62.00;;;;;;2084112;28;20033;-76
2020/12/11 02:32:01;;;;;;;15.23;11.23;;;5.50;62.00;;;;;;2084784;28;20021;-74
2020/12/11 02:33:01;;;;;;;11.48;10.27;;;5.50;62.00;;;;;;2083749;28;20256;-76
2020/12/11 02:34:02;;;;;;;13.60;10.43;;;5.50;62.40;;;;;;2084609;28;20024;-76
2020/12/11 02:35:03;;;;;;;15.30;12.18;;;5.50;62.20;;;;;;2076073;28;20072;-76
2020/12/11 02:36:03;;;;;;;15.82;11.30;;;5.50;62.20;;;;;;2068063;28;20033;-76
2020/12/11 02:37:04;;;;;;;14.27;10.93;;;5.50;62.20;;;;;;2075997;28;20022;-76
2020/12/11 02:38:05;;;;;;;14.82;10.98;;;5.50;62.20;;;;;;2075470;28;20057;-76
2020/12/11 02:39:05;;;;;;;14.52;11.45;;;5.50;62.20;;;;;;2075396;28;20025;-77
2020/12/11 02:40:07;;;;;;;13.90;10.65;;;5.40;62.80;;;;;;2084584;28;20013;-76
2020/12/11 02:41:08;;;;;;;13.40;11.27;;;5.50;62.20;;;;;;2075881;28;20468;-77
2020/12/11 02:42:08;;;;;;;14.15;11.27;;;5.40;62.20;;;;;;2067077;28;20018;-76
2020/12/11 02:43:09;;;;;;;15.55;11.90;;;5.40;62.20;;;;;;2074897;28;20021;-76
2020/12/11 02:44:09;;;;;;;14.85;11.82;;;5.40;62.30;;;;;;2075580;28;20013;-76
2020/12/11 02:45:10;;;;;;;15.02;11.52;;;5.40;62.30;;;;;;2075950;28;20018;-76
2020/12/11 02:46:11;;;;;;;14.63;11.48;;;5.40;62.20;;;;;;2083623;28;20026;-76
2020/12/11 02:47:15;;;;;;;15.18;12.20;;;5.40;62.20;;;;;;2084893;28;20451;-77
2020/12/11 02:48:15;;;;;;;14.70;11.98;;;5.40;62.20;;;;;;2074562;28;20022;-77
2020/12/11 02:49:16;;;;;;;17.58;13.00;;;5.40;62.30;;;;;;2075587;28;20026;-76
2020/12/11 02:50:16;;;;;;;15.10;12.02;;;5.40;62.30;;;;;;2084213;28;20021;-76
2020/12/11 02:51:17;;;;;;;14.60;11.63;;;5.40;62.30;;;;;;2084331;28;20079;-76
2020/12/11 02:52:17;;;;;;;15.65;12.02;;;5.40;62.30;;;;;;2076161;28;20072;-76
2020/12/11 02:53:18;;;;;;;15.77;12.93;;;5.40;62.30;;;;;;2075413;28;20032;-76
2020/12/11 02:54:19;;;;;;;16.80;12.20;;;5.40;62.30;;;;;;2079074;28;20201;-77
2020/12/11 02:55:19;;;;;;;15.85;12.15;;;5.40;62.30;;;;;;2079082;28;20021;-76
2020/12/11 02:56:21;;;;;;;16.23;11.48;;;5.30;62.30;;;;;;2084258;28;20030;-77
2020/12/11 02:57:22;;;;;;;16.83;12.05;;;5.30;62.30;;;;;;2084758;28;20029;-76
2020/12/11 02:58:23;;;;;;;15.38;11.93;;;5.30;62.40;;;;;;2067930;28;20025;-77
2020/12/11 02:59:23;;;;;;;17.13;11.65;;;5.30;62.40;;;;;;2067561;28;20015;-76
2020/12/11 03:00:24;;;;;;;15.00;11.25;;;5.30;62.40;;;;;;2075641;28;20089;-76
2020/12/11 03:01:26;;;;;;;13.65;11.68;;;5.30;62.50;;;;;;2075355;28;20091;-76
2020/12/11 03:02:26;;;;;;;13.07;11.18;;;5.30;62.50;;;;;;2084318;28;20461;-76
2020/12/11 03:03:27;;;;;;;16.50;11.57;;;5.30;62.40;;;;;;2084439;28;20032;-76
2020/12/11 03:04:27;;;;;;;15.02;12.27;;;5.30;62.50;;;;;;2084195;28;20101;-76
2020/12/11 03:05:28;;;;;;;16.25;12.68;;;5.30;62.50;;;;;;2084008;28;20021;-76
2020/12/11 03:06:31;;;;;;;17.08;12.63;;;5.30;62.50;;;;;;2084668;28;20048;-76
2020/12/11 03:07:31;;;;;;;16.08;11.93;;;5.30;62.50;;;;;;2084520;28;20017;-76
2020/12/11 03:08:32;;;;;;;14.75;12.05;;;5.30;62.50;;;;;;2084364;28;20026;-76
2020/12/11 03:09:33;;;;;;;18.60;12.75;;;5.30;62.60;;;;;;2071074;28;20065;-77
2020/12/11 03:10:34;;;;;;;18.77;13.35;;;5.20;62.40;;;;;;2070207;28;20054;-75
2020/12/11 03:11:34;;;;;;;16.05;11.55;;;5.20;62.40;;;;;;2079722;28;20388;-75
2020/12/11 03:12:35;;;;;;;15.20;11.63;;;5.20;62.50;;;;;;2079108;28;20121;-75
2020/12/11 03:13:36;;;;;;;15.50;12.55;;;5.20;62.50;;;;;;2083930;28;20042;-74
2020/12/11 03:14:36;;;;;;;17.63;12.95;;;5.20;62.60;;;;;;2084182;28;20033;-75
2020/12/11 03:15:37;;;;;;;14.88;12.07;;;5.20;62.60;;;;;;2074692;28;20077;-74
2020/12/11 03:16:37;;;;;;;15.23;12.45;;;5.20;62.70;;;;;;2073016;28;20735;-75
2020/12/11 03:17:38;;;;;;;16.63;12.52;;;5.20;62.70;;;;;;2084386;28;20518;-74
2020/12/11 03:18:39;;;;;;;16.92;12.90;;;5.20;62.90;;;;;;2074997;28;20449;-75
2020/12/11 03:19:39;;;;;;;16.10;12.85;;;5.20;62.90;;;;;;2074952;28;20033;-76
2020/12/11 03:20:40;;;;;;;16.85;12.85;;;5.20;63.00;;;;;;2084394;28;20063;-75
2020/12/11 03:21:41;;;;;;;15.93;12.15;;;5.20;63.10;;;;;;2084223;28;20503;-75
2020/12/11 03:22:41;;;;;;;17.38;13.20;;;5.20;63.10;;;;;;2075972;28;20089;-75
2020/12/11 03:23:42;;;;;;;17.45;13.10;;;5.20;63.20;;;;;;2075214;28;20113;-75
2020/12/11 03:24:43;;;;;;;16.48;12.55;;;5.20;63.20;;;;;;2067140;28;20027;-75
2020/12/11 03:25:44;;;;;;;16.60;12.75;;;5.30;63.30;;;;;;2068306;28;20026;-74
2020/12/11 03:26:44;;;;;;;16.05;12.55;;;5.20;63.20;;;;;;2085649;28;20043;-75
2020/12/11 03:27:45;;;;;;;15.88;12.18;;;5.20;63.20;;;;;;2083792;28;20025;-75
2020/12/11 03:28:47;;;;;;;17.45;13.07;;;5.30;63.30;;;;;;2075256;28;20326;-74
2020/12/11 03:29:48;;;;;;;16.65;12.70;;;5.30;63.30;;;;;;2075939;28;20029;-75
2020/12/11 03:30:49;;;;;;;15.25;11.68;;;5.30;63.30;;;;;;2075076;28;20053;-76
2020/12/11 03:31:50;;;;;;;16.80;12.77;;;5.30;63.30;;;;;;2083278;28;20115;-76
2020/12/11 03:32:50;;;;;;;18.00;13.75;;;5.30;63.30;;;;;;2083770;28;20056;-76
2020/12/11 03:33:51;;;;;;;17.35;12.75;;;5.30;63.30;;;;;;2075000;28;20083;-76
2020/12/11 03:34:51;;;;;;;16.27;12.90;;;5.30;63.30;;;;;;2075508;28;20147;-76
2020/12/11 03:35:53;;;;;;;16.60;12.65;;;5.30;63.30;;;;;;2083806;28;20047;-76
2020/12/11 03:36:54;;;;;;;17.70;12.38;;;5.30;63.20;;;;;;2083673;28;20075;-76
2020/12/11 03:37:54;;;;;;;15.30;12.23;;;5.30;63.20;;;;;;2084329;28;20044;-77
2020/12/11 03:38:55;;;;;;;16.45;13.23;;;5.30;63.20;;;;;;2083717;28;20478;-76
2020/12/11 03:39:55;;;;;;;15.57;12.25;;;5.30;63.10;;;;;;2075004;28;20543;-76
2020/12/11 03:40:56;;;;;;;16.33;12.40;;;5.40;63.20;;;;;;2075575;28;20530;-76
2020/12/11 03:41:57;;;;;;;16.05;12.80;;;5.30;63.10;;;;;;2083818;28;20017;-76
2020/12/11 03:42:58;;;;;;;17.48;12.80;;;5.40;63.20;;;;;;2084133;28;20052;-76
2020/12/11 03:43:58;;;;;;;14.98;12.63;;;5.30;63.10;;;;;;2083616;28;20026;-76
2020/12/11 03:44:59;;;;;;;16.15;12.45;;;5.30;63.20;;;;;;2084071;28;20014;-76
2020/12/11 03:45:59;;;;;;;19.73;13.45;;;5.40;63.20;;;;;;2083645;28;20048;-76
2020/12/11 03:47:00;;;;;;;16.33;11.85;;;5.40;63.20;;;;;;2084029;28;20044;-76
2020/12/11 03:48:00;;;;;;;15.93;12.68;;;5.40;63.30;;;;;;2082278;28;20044;-76
2020/12/11 03:49:01;;;;;;;19.15;13.15;;;5.40;63.30;;;;;;2083393;28;20017;-77
2020/12/11 03:50:02;;;;;;;15.43;12.35;;;5.40;63.20;;;;;;2082995;28;20372;-76
2020/12/11 03:51:03;;;;;;;15.60;12.43;;;5.30;63.20;;;;;;2083536;28;20365;-76
2020/12/11 03:52:04;;;;;;;15.73;13.02;;;5.40;63.20;;;;;;2074145;28;20045;-76
2020/12/11 03:53:04;;;;;;;15.50;12.25;;;5.40;63.20;;;;;;2074458;28;20057;-76
2020/12/11 03:54:05;;;;;;;17.60;12.77;;;5.40;63.20;;;;;;2083663;28;20062;-76
2020/12/11 03:55:05;;;;;;;17.17;12.73;;;5.40;63.20;;;;;;2083622;28;20071;-76
2020/12/11 03:56:06;;;;;;;15.50;12.65;;;5.40;63.10;;;;;;2083576;28;20464;-77
2020/12/11 03:57:07;;;;;;;16.52;12.50;;;5.40;63.10;;;;;;2083433;28;20113;-74
2020/12/11 03:58:08;;;;;;;17.70;13.20;;;5.40;63.10;;;;;;2075776;28;20576;-76
2020/12/11 03:59:08;;;;;;;17.45;13.18;;;5.40;63.10;;;;;;2074413;28;20077;-76
2020/12/11 04:00:09;;;;;;;16.88;12.60;;;5.30;63.00;;;;;;2083968;28;20039;-76
2020/12/11 04:01:11;;;;;;;17.92;12.88;;;5.40;63.00;;;;;;2081816;28;20102;-76
2020/12/11 04:02:12;;;;;;;18.70;13.38;;;5.30;63.00;;;;;;2075286;28;20072;-76
2020/12/11 04:03:13;;;;;;;18.15;13.27;;;5.30;63.00;;;;;;2074822;28;20022;-76
2020/12/11 04:04:14;;;;;;;18.73;13.98;;;5.30;63.00;;;;;;2083656;28;20405;-76
2020/12/11 04:05:14;;;;;;;16.60;12.80;;;5.30;62.90;;;;;;2074533;28;20032;-77
2020/12/11 04:06:17;;;;;;;17.05;12.85;;;5.30;63.00;;;;;;2059309;28;20066;-76
2020/12/11 04:07:18;;;;;;;17.50;12.98;;;5.30;63.00;;;;;;2067467;28;20026;-76
2020/12/11 04:08:19;;;;;;;16.35;12.40;;;5.30;63.10;;;;;;2074761;28;20028;-76
2020/12/11 04:09:19;;;;;;;17.33;13.25;;;5.30;63.00;;;;;;2070623;28;20408;-76
2020/12/11 04:10:20;;;;;;;19.60;14.20;;;5.30;63.10;;;;;;2084459;28;20603;-76
2020/12/11 04:11:20;;;;;;;17.58;13.30;;;5.20;63.00;;;;;;2066617;28;20461;-76
2020/12/11 04:12:21;;;;;;;14.93;12.50;;;5.30;63.10;;;;;;2066831;28;20011;-76
2020/12/11 04:13:21;;;;;;;16.65;13.52;;;5.30;63.10;;;;;;2083681;28;20344;-76
2020/12/11 04:14:22;;;;;;;15.63;12.32;;;5.20;63.10;;;;;;2084280;28;20292;-77
2020/12/11 04:15:22;;;;;;;16.05;12.32;;;5.30;63.30;;;;;;2083925;28;20039;-76
2020/12/11 04:16:23;;;;;;;17.77;12.77;;;5.20;63.10;;;;;;2082318;28;20122;-76
2020/12/11 04:17:24;;;;;;;16.92;12.80;;;5.20;63.10;;;;;;2083873;28;20079;-76
2020/12/11 04:18:24;;;;;;;17.48;13.02;;;5.20;63.30;;;;;;2083947;28;20064;-76
2020/12/11 04:19:28;;;;;;;16.48;13.25;;;5.20;63.10;;;;;;2074444;28;20112;-76
2020/12/11 04:20:29;;;;;;;16.42;12.85;;;5.20;63.20;;;;;;2075493;28;20033;-76
2020/12/11 04:21:29;;;;;;;17.65;13.63;;;5.20;63.10;;;;;;2083323;28;20024;-77
2020/12/11 04:22:30;;;;;;;17.33;12.95;;;5.20;63.20;;;;;;2083584;28;20025;-76
2020/12/11 04:23:30;;;;;;;18.13;13.30;;;5.20;63.20;;;;;;2082226;28;20023;-77
2020/12/11 04:24:31;;;;;;;17.35;13.35;;;5.20;63.30;;;;;;2083207;28;20511;-77
2020/12/11 04:25:31;;;;;;;17.42;12.75;;;5.20;63.30;;;;;;2083728;28;20399;-76
2020/12/11 04:26:32;;;;;;;15.32;12.27;;;5.20;63.20;;;;;;2075235;28;20164;-76
2020/12/11 04:27:32;;;;;;;18.02;13.18;;;5.20;63.30;;;;;;2059343;28;20021;-74
2020/12/11 04:28:33;;;;;;;18.30;13.32;;;5.20;63.30;;;;;;2070009;28;20536;-76
2020/12/11 04:29:34;;;;;;;14.68;12.48;;;5.20;63.30;;;;;;2082960;28;20022;-74
2020/12/11 04:30:34;;;;;;;16.10;13.38;;;5.20;63.30;;;;;;2075068;28;20101;-77
2020/12/11 04:31:35;;;;;;;19.52;13.70;;;5.20;63.30;;;;;;2074037;28;20036;-75
2020/12/11 04:32:36;;;;;;;16.35;12.68;;;5.20;63.30;;;;;;2079033;28;20034;-77
2020/12/11 04:33:37;;;;;;;17.02;12.77;;;5.20;63.30;;;;;;2078474;28;20017;-76
2020/12/11 04:34:38;;;;;;;16.50;13.07;;;5.20;63.30;;;;;;2083794;28;20021;-76
2020/12/11 04:35:38;;;;;;;19.08;14.75;;;5.20;63.30;;;;;;2083036;28;20033;-76
2020/12/11 04:36:39;;;;;;;17.60;13.13;;;5.10;63.30;;;;;;2083585;28;20036;-76
2020/12/11 04:37:39;;;;;;;18.02;13.50;;;5.10;63.30;;;;;;2074643;28;20033;-77
2020/12/11 04:38:40;;;;;;;18.13;13.50;;;5.10;63.20;;;;;;2074687;28;20038;-77
2020/12/11 04:39:40;;;;;;;16.10;13.05;;;5.10;63.60;;;;;;2083181;28;20079;-75
2020/12/11 04:40:41;;;;;;;17.02;12.55;;;5.10;63.30;;;;;;2083258;28;20396;-76
2020/12/11 04:41:44;;;;;;;16.58;12.55;;;5.10;63.40;;;;;;2083797;28;20039;-75
2020/12/11 04:42:46;;;;;;;17.48;12.93;;;5.10;63.40;;;;;;2074012;28;20381;-79
2020/12/11 04:43:50;;;;;;;18.52;13.07;;;5.10;63.30;;;;;;2067656;28;20096;-74
2020/12/11 04:44:51;;;;;;;16.27;12.88;;;5.10;63.40;;;;;;2075947;28;20400;-74
2020/12/11 04:45:52;;;;;;;17.92;13.27;;;5.10;63.40;;;;;;2074762;28;20009;-74
2020/12/11 04:46:53;;;;;;;18.35;13.30;;;5.10;63.40;;;;;;2066301;28;20023;-75
2020/12/11 04:47:54;;;;;;;15.52;13.05;;;5.10;63.40;;;;;;2074852;28;20029;-75
2020/12/11 04:48:55;;;;;;;17.45;13.15;;;5.10;63.40;;;;;;2082586;28;20071;-74
2020/12/11 04:49:57;;;;;;;19.00;13.60;;;5.10;63.40;;;;;;2083409;28;20154;-74
2020/12/11 04:50:59;;;;;;;17.15;13.18;;;5.20;63.40;;;;;;2083111;28;20029;-74
2020/12/11 04:52:05;;;;;;;18.05;13.27;;;5.10;63.40;;;;;;2074460;28;20021;-75
2020/12/11 04:53:12;;;;;;;17.70;13.13;;;5.10;63.40;;;;;;2075231;28;20859;-76
2020/12/11 04:54:19;;;;;;;17.25;12.63;;;5.10;63.40;;;;;;2083497;28;20355;-74
2020/12/11 04:55:20;;;;;;;19.48;12.77;;;5.10;63.50;;;;;;2083325;28;20029;-76
2020/12/11 04:56:22;;;;;;;15.45;12.25;;;5.10;63.50;;;;;;2083154;28;20039;-76
2020/12/11 04:57:26;;;;;;;17.63;13.05;;;5.10;63.40;;;;;;2083829;28;20160;-76
2020/12/11 04:58:29;;;;;;;19.58;13.65;;;5.10;63.50;;;;;;2082765;28;20074;-74
2020/12/11 04:59:30;;;;;;;16.80;12.55;;;5.10;63.50;;;;;;2083254;28;20037;-74
2020/12/11 05:00:31;;;;;;;18.45;13.32;;;5.10;63.50;;;;;;2074833;28;20017;-75
2020/12/11 05:01:33;;;;;;;17.70;13.02;;;5.10;63.60;;;;;;2075044;28;20502;-75
2020/12/11 05:02:33;;;;;;;17.15;13.60;;;5.10;63.60;;;;;;2083749;28;20080;-76
2020/12/11 05:03:35;;;;;;;18.00;13.25;;;5.10;63.60;;;;;;2082912;28;20032;-76
2020/12/11 05:04:37;;;;;;;17.02;13.77;;;5.10;63.60;;;;;;2083088;28;20062;-76
2020/12/11 05:05:38;;;;;;;18.02;12.35;;;5.10;63.70;;;;;;2083895;28;20384;-76
2020/12/11 05:06:38;;;;;;;17.15;13.45;;;5.10;63.60;;;;;;2083253;28;20040;-76
2020/12/11 05:07:40;;;;;;;18.20;13.15;;;5.10;63.70;;;;;;2083397;28;20036;-77
2020/12/11 05:08:40;;;;;;;17.65;12.68;;;5.10;63.70;;;;;;2083492;28;20431;-76
2020/12/11 05:09:41;;;;;;;18.50;12.63;;;5.10;63.60;;;;;;2074025;28;20119;-76
2020/12/11 05:10:41;;;;;;;19.35;14.32;;;5.10;63.60;;;;;;2074983;28;20139;-76
2020/12/11 05:11:44;;;;;;;16.23;12.90;;;5.10;63.60;;;;;;2073653;28;20113;-77
2020/12/11 05:12:44;;;;;;;18.10;13.00;;;5.10;63.60;;;;;;2073619;28;20096;-76
2020/12/11 05:13:45;;;;;;;18.42;12.80;;;5.10;63.60;;;;;;2083339;28;20130;-76